Time;durP1;ratioP1;P1;durP2;ratioP2;P2;SDS_P1;SDS_P2;PMS_P1;PMS_P2;Temp;Humidity;BMP_temperature;BMP_pressure;BME280_temperature;BME280_humidity;BME280_pressure;Samples;Min_cycle;Max_cycle;Signal;HPM_P1;HPM_P2
2021/06/03 00:00:16;;;;;;;2.15;1.35;;;20.70;50.30;;;;;;5114535;28;20062;-71
2021/06/03 00:02:47;;;;;;;3.58;1.55;;;20.70;50.50;;;;;;5088034;28;20491;-70
2021/06/03 00:05:18;;;;;;;2.15;1.20;;;20.70;50.70;;;;;;5092021;28;20042;-70
2021/06/03 00:07:45;;;;;;;2.13;1.00;;;20.70;50.70;;;;;;5094911;28;20047;-70
2021/06/03 00:10:13;;;;;;;3.38;1.10;;;20.60;50.70;;;;;;5115066;28;20040;-70
2021/06/03 00:12:40;;;;;;;1.65;1.10;;;20.60;50.90;;;;;;5114014;28;20047;-70
2021/06/03 00:15:10;;;;;;;1.85;0.90;;;20.60;51.00;;;;;;5114244;28;20387;-70
2021/06/03 00:17:37;;;;;;;1.95;1.05;;;20.60;51.80;;;;;;5113137;28;20040;-70
2021/06/03 00:20:11;;;;;;;3.13;1.15;;;20.60;51.30;;;;;;5079353;28;20101;-70
2021/06/03 00:22:39;;;;;;;1.92;1.08;;;20.50;51.50;;;;;;5113773;28;20039;-70
2021/06/03 00:25:06;;;;;;;2.90;1.00;;;20.50;51.60;;;;;;5109509;28;20051;-70
2021/06/03 00:27:34;;;;;;;3.10;1.20;;;20.40;51.80;;;;;;5100176;28;20507;-70
2021/06/03 00:30:04;;;;;;;2.65;1.38;;;20.30;52.00;;;;;;5095406;28;20410;-70
2021/06/03 00:32:30;;;;;;;2.33;1.00;;;20.30;52.30;;;;;;5114361;28;20572;-70
2021/06/03 00:34:58;;;;;;;2.47;1.10;;;20.20;52.50;;;;;;5078986;28;20043;-70
2021/06/03 00:37:25;;;;;;;1.80;1.10;;;20.20;52.70;;;;;;5094940;28;20130;-70
2021/06/03 00:39:52;;;;;;;2.25;1.17;;;20.10;52.90;;;;;;5113764;28;20429;-70
2021/06/03 00:42:19;;;;;;;1.92;0.95;;;20.10;53.00;;;;;;5090484;28;20055;-70
2021/06/03 00:44:46;;;;;;;3.47;0.90;;;20.10;53.20;;;;;;5113716;28;20509;-70
2021/06/03 00:47:13;;;;;;;3.50;1.10;;;20.10;53.20;;;;;;5106931;28;20043;-70
2021/06/03 00:49:40;;;;;;;2.05;1.08;;;20.10;53.30;;;;;;5113874;28;20035;-70
2021/06/03 00:52:08;;;;;;;2.35;1.00;;;20.00;53.30;;;;;;5087827;28;20536;-70
2021/06/03 00:54:35;;;;;;;4.22;2.90;;;20.00;53.40;;;;;;5105504;28;20048;-70
2021/06/03 00:57:03;;;;;;;2.53;1.25;;;20.00;53.50;;;;;;5093610;28;20032;-70
2021/06/03 00:59:30;;;;;;;2.65;1.05;;;20.00;53.50;;;;;;5075299;28;20507;-70
2021/06/03 01:01:57;;;;;;;3.17;0.95;;;19.90;53.60;;;;;;5094460;28;20138;-70
2021/06/03 01:04:29;;;;;;;2.47;1.05;;;19.90;53.70;;;;;;5073452;28;20044;-70
2021/06/03 01:06:57;;;;;;;2.05;1.02;;;19.90;53.80;;;;;;5110954;28;20051;-70
2021/06/03 01:09:28;;;;;;;1.73;0.90;;;19.80;53.90;;;;;;5094729;28;20112;-70
2021/06/03 01:12:10;;;;;;;2.47;1.17;;;19.80;54.10;;;;;;5078072;28;20491;-70
2021/06/03 01:14:46;;;;;;;2.78;1.38;;;19.80;54.20;;;;;;5112148;28;20039;-70
2021/06/03 01:17:14;;;;;;;2.33;1.13;;;19.80;54.40;;;;;;5113132;28;20035;-70
2021/06/03 01:19:43;;;;;;;2.05;1.02;;;19.80;54.50;;;;;;5111461;28;20101;-70
2021/06/03 01:22:23;;;;;;;3.53;1.20;;;19.70;54.70;;;;;;5094864;28;20407;-70
2021/06/03 01:24:58;;;;;;;2.40;1.23;;;19.70;54.80;;;;;;5092870;28;20130;-70
2021/06/03 01:27:31;;;;;;;1.40;0.80;;;19.70;55.00;;;;;;5078503;28;20135;-69
2021/06/03 01:30:05;;;;;;;1.97;1.00;;;19.70;55.20;;;;;;5094429;28;20430;-70
2021/06/03 01:32:36;;;;;;;2.10;1.02;;;19.60;55.30;;;;;;5094677;28;20040;-70
2021/06/03 01:35:06;;;;;;;2.33;1.10;;;19.60;55.50;;;;;;5092828;28;20058;-70
2021/06/03 01:37:34;;;;;;;1.60;1.00;;;19.60;55.60;;;;;;5094484;28;20154;-70
2021/06/03 01:40:03;;;;;;;1.73;0.85;;;19.60;55.70;;;;;;5091403;28;20035;-70
2021/06/03 01:42:31;;;;;;;3.10;1.58;;;19.60;55.80;;;;;;5092956;28;20100;-70
2021/06/03 01:44:58;;;;;;;1.80;0.90;;;19.60;56.00;;;;;;5093945;28;20071;-70
2021/06/03 01:47:26;;;;;;;3.47;1.10;;;19.60;56.20;;;;;;5094401;28;20036;-70
2021/06/03 01:49:54;;;;;;;1.98;1.10;;;19.50;56.30;;;;;;5093489;28;20058;-70
2021/06/03 01:52:22;;;;;;;2.65;0.90;;;19.50;56.50;;;;;;5065689;28;20036;-70
2021/06/03 01:54:50;;;;;;;1.95;1.00;;;19.50;56.60;;;;;;5111348;28;20781;-70
2021/06/03 01:57:19;;;;;;;2.05;1.00;;;19.40;56.90;;;;;;5109885;28;20111;-70
2021/06/03 02:00:00;;;;;;;2.17;0.90;;;19.40;57.60;;;;;;5077899;28;20146;-70
2021/06/03 02:02:35;;;;;;;1.65;1.00;;;19.30;57.20;;;;;;5090353;28;20126;-70
2021/06/03 02:05:03;;;;;;;1.55;0.90;;;19.30;57.40;;;;;;5092582;28;20040;-70
2021/06/03 02:07:30;;;;;;;3.00;0.90;;;19.30;57.50;;;;;;5094005;28;20039;-70
2021/06/03 02:09:58;;;;;;;1.73;1.05;;;19.20;57.60;;;;;;5111626;28;20142;-70
2021/06/03 02:12:31;;;;;;;1.85;1.00;;;19.20;57.80;;;;;;5093835;28;20047;-70
2021/06/03 02:15:01;;;;;;;2.25;1.00;;;19.20;57.90;;;;;;5092076;28;20074;-70
2021/06/03 02:17:32;;;;;;;1.58;0.90;;;19.10;58.10;;;;;;5108158;28;20052;-70
2021/06/03 02:20:04;;;;;;;2.33;0.90;;;19.10;58.30;;;;;;5111755;28;20067;-70
2021/06/03 02:22:33;;;;;;;;;;;19.10;58.40;;;;;;5092316;28;20129;-70
2021/06/03 02:25:00;;;;;;;2.08;1.15;;;19.00;58.20;;;;;;5111742;28;20019;-70
2021/06/03 02:27:28;;;;;;;2.78;1.40;;;18.90;58.50;;;;;;5093434;28;20130;-70
2021/06/03 02:29:55;;;;;;;2.08;1.00;;;18.90;58.60;;;;;;5111909;28;20043;-70
2021/06/03 02:32:31;;;;;;;1.60;0.90;;;18.90;58.80;;;;;;5093985;28;20086;-70
2021/06/03 02:35:00;;;;;;;2.70;1.02;;;18.90;58.90;;;;;;5076833;28;20289;-70
2021/06/03 02:37:28;;;;;;;3.03;1.10;;;18.80;59.00;;;;;;5111487;28;20495;-70
2021/06/03 02:39:59;;;;;;;2.10;1.10;;;18.80;59.10;;;;;;5093256;28;20499;-70
2021/06/03 02:42:27;;;;;;;1.65;0.70;;;18.80;59.20;;;;;;5083858;28;20139;-70
2021/06/03 02:44:55;;;;;;;2.20;0.80;;;18.80;59.40;;;;;;5092686;28;20035;-70
2021/06/03 02:47:24;;;;;;;2.40;1.00;;;18.80;59.60;;;;;;5104691;28;20172;-70
2021/06/03 02:49:53;;;;;;;2.03;0.88;;;18.70;59.60;;;;;;5076218;28;20044;-70
2021/06/03 02:52:21;;;;;;;3.38;1.00;;;18.70;59.80;;;;;;5093055;28;20075;-69
2021/06/03 02:54:52;;;;;;;1.65;0.98;;;18.80;59.90;;;;;;5091960;28;20051;-70
2021/06/03 02:57:22;;;;;;;2.33;1.13;;;18.70;59.90;;;;;;5111039;28;20046;-70
2021/06/03 02:59:49;;;;;;;1.60;0.80;;;18.70;60.10;;;;;;5077147;28;20407;-70
2021/06/03 03:02:17;;;;;;;2.75;0.80;;;18.70;60.10;;;;;;5060144;28;20050;-70
2021/06/03 03:04:47;;;;;;;1.52;0.88;;;18.70;60.30;;;;;;5085492;28;20105;-70
2021/06/03 03:07:15;;;;;;;2.08;0.82;;;18.70;60.40;;;;;;5083892;28;20111;-70
2021/06/03 03:09:42;;;;;;;2.25;1.10;;;18.70;60.50;;;;;;5057452;28;20040;-70
2021/06/03 03:12:11;;;;;;;2.58;1.08;;;18.70;60.70;;;;;;5096220;28;20039;-70
2021/06/03 03:14:38;;;;;;;1.48;1.00;;;18.70;60.80;;;;;;5091902;28;20032;-70
2021/06/03 03:17:05;;;;;;;2.33;1.02;;;18.70;60.90;;;;;;5093752;28;20059;-70
2021/06/03 03:19:33;;;;;;;4.05;0.90;;;18.70;61.10;;;;;;5114874;28;20034;-70
2021/06/03 03:22:02;;;;;;;2.72;0.77;;;18.70;61.20;;;;;;5115469;28;20491;-73
2021/06/03 03:24:31;;;;;;;1.52;0.82;;;18.60;61.30;;;;;;5097551;28;20490;-73
2021/06/03 03:26:58;;;;;;;1.67;0.95;;;18.60;61.40;;;;;;5103806;28;20067;-73
2021/06/03 03:29:26;;;;;;;2.45;0.85;;;18.60;61.40;;;;;;5096028;28;20055;-74
2021/06/03 03:31:53;;;;;;;1.33;0.80;;;18.60;61.50;;;;;;5115610;28;20050;-73
2021/06/03 03:34:20;;;;;;;1.75;0.90;;;18.60;61.50;;;;;;5096704;28;20042;-73
2021/06/03 03:36:48;;;;;;;1.52;0.82;;;18.60;61.60;;;;;;5096768;28;20089;-73
2021/06/03 03:39:16;;;;;;;1.48;0.88;;;18.60;61.70;;;;;;5097411;28;20040;-73
2021/06/03 03:41:43;;;;;;;1.85;0.70;;;18.60;61.80;;;;;;5088169;28;20048;-73
2021/06/03 03:44:11;;;;;;;1.83;1.00;;;18.60;61.80;;;;;;5094571;28;20036;-74
2021/06/03 03:46:39;;;;;;;1.67;1.00;;;18.60;61.90;;;;;;5091289;28;20405;-74
2021/06/03 03:49:09;;;;;;;1.50;0.95;;;18.60;62.00;;;;;;5074048;28;20083;-73
2021/06/03 03:51:37;;;;;;;2.17;1.13;;;18.60;62.20;;;;;;5097797;28;20114;-73
2021/06/03 03:54:06;;;;;;;2.72;1.02;;;18.50;62.20;;;;;;5113603;28;20039;-74
2021/06/03 03:56:33;;;;;;;2.28;1.35;;;18.50;62.40;;;;;;5096712;28;20547;-73
2021/06/03 03:59:00;;;;;;;3.10;1.10;;;18.50;62.50;;;;;;5096445;28;20487;-73
2021/06/03 04:01:30;;;;;;;2.92;1.30;;;18.50;62.60;;;;;;5113080;28;20077;-73
2021/06/03 04:03:58;;;;;;;2.05;0.98;;;18.50;62.80;;;;;;5077297;28;20156;-74
2021/06/03 04:06:27;;;;;;;1.95;1.20;;;18.50;62.90;;;;;;5114570;28;20075;-74
2021/06/03 04:08:58;;;;;;;2.05;0.90;;;18.50;62.90;;;;;;5080074;28;20051;-73
2021/06/03 04:11:25;;;;;;;1.45;0.85;;;18.50;63.00;;;;;;5110466;28;20126;-74
2021/06/03 04:13:57;;;;;;;1.35;0.77;;;18.50;63.20;;;;;;5077133;28;20052;-73
2021/06/03 04:16:24;;;;;;;2.20;0.93;;;18.40;63.20;;;;;;5091011;28;20459;-73
2021/06/03 04:18:52;;;;;;;2.10;0.95;;;18.40;63.40;;;;;;5076448;28;20044;-73
2021/06/03 04:21:20;;;;;;;1.88;1.10;;;18.40;63.50;;;;;;5078679;28;20040;-73
2021/06/03 04:23:47;;;;;;;1.50;1.00;;;18.50;63.60;;;;;;5096911;28;20096;-73
2021/06/03 04:26:14;;;;;;;1.15;0.70;;;18.50;63.70;;;;;;5095893;28;20072;-73
2021/06/03 04:28:42;;;;;;;1.63;0.93;;;18.50;63.80;;;;;;5095909;28;20483;-73
2021/06/03 04:31:10;;;;;;;2.20;0.95;;;18.50;63.90;;;;;;5106250;28;20514;-73
2021/06/03 04:33:37;;;;;;;1.48;0.90;;;18.50;63.90;;;;;;5114453;28;20074;-73
2021/06/03 04:36:05;;;;;;;1.77;1.00;;;18.60;64.00;;;;;;5101518;28;20441;-73
2021/06/03 04:38:32;;;;;;;1.38;0.80;;;18.60;64.00;;;;;;5096575;28;20552;-73
2021/06/03 04:40:59;;;;;;;1.80;0.88;;;18.60;64.00;;;;;;5095723;28;20117;-74
2021/06/03 04:43:27;;;;;;;3.05;1.17;;;18.70;64.10;;;;;;5114186;28;20035;-73
2021/06/03 04:45:54;;;;;;;1.65;0.77;;;18.70;64.10;;;;;;5098085;28;20040;-73
2021/06/03 04:48:21;;;;;;;3.22;1.00;;;18.80;64.10;;;;;;5101551;28;20077;-73
2021/06/03 04:50:51;;;;;;;2.20;1.33;;;18.90;64.20;;;;;;5110838;28;20399;-73
2021/06/03 04:53:19;;;;;;;2.20;1.20;;;19.00;64.20;;;;;;5095802;28;20028;-72
2021/06/03 04:55:46;;;;;;;1.52;0.80;;;19.10;64.10;;;;;;5077016;28;20101;-73
2021/06/03 04:58:13;;;;;;;2.03;0.85;;;19.20;64.00;;;;;;5094509;28;20172;-73
2021/06/03 05:00:42;;;;;;;1.30;0.73;;;19.30;64.00;;;;;;5093004;28;20364;-73
2021/06/03 05:03:11;;;;;;;2.13;1.00;;;19.40;63.90;;;;;;5078655;28;20524;-73
2021/06/03 05:05:43;;;;;;;1.60;0.80;;;19.50;63.90;;;;;;5096477;28;20131;-73
2021/06/03 05:08:10;;;;;;;1.42;0.75;;;19.50;63.80;;;;;;5096833;28;20365;-74
2021/06/03 05:10:38;;;;;;;2.13;1.30;;;19.60;63.80;;;;;;5076124;28;20515;-73
2021/06/03 05:13:06;;;;;;;2.20;1.00;;;19.70;63.80;;;;;;5094704;28;20415;-74
2021/06/03 05:15:33;;;;;;;1.55;0.90;;;19.80;63.80;;;;;;5112893;28;20043;-74
2021/06/03 05:18:05;;;;;;;1.77;0.93;;;19.80;63.80;;;;;;5079114;28;20055;-73
2021/06/03 05:20:35;;;;;;;2.17;0.98;;;19.90;63.70;;;;;;5066597;28;20401;-73
2021/06/03 05:23:03;;;;;;;4.22;0.98;;;20.00;63.80;;;;;;5074408;28;20552;-74
2021/06/03 05:25:32;;;;;;;1.85;1.00;;;20.00;63.80;;;;;;5095805;28;20093;-73
2021/06/03 05:28:00;;;;;;;1.83;0.85;;;20.00;63.90;;;;;;5114145;28;20088;-73
2021/06/03 05:30:28;;;;;;;1.73;0.90;;;20.10;64.00;;;;;;5111685;28;20043;-73
2021/06/03 05:32:55;;;;;;;1.02;0.65;;;20.10;64.10;;;;;;5094435;28;20039;-74
2021/06/03 05:35:23;;;;;;;2.35;1.08;;;20.10;64.20;;;;;;5093971;28;20136;-73
2021/06/03 05:37:50;;;;;;;2.20;1.38;;;20.20;64.10;;;;;;5111345;28;20063;-73
2021/06/03 05:40:21;;;;;;;2.30;1.15;;;20.20;64.00;;;;;;5095499;28;20469;-73
2021/06/03 05:42:51;;;;;;;1.83;1.05;;;20.20;64.10;;;;;;5113068;28;20043;-73
2021/06/03 05:45:20;;;;;;;2.13;1.13;;;20.20;64.20;;;;;;5086741;28;20540;-74
2021/06/03 05:47:48;;;;;;;2.28;1.23;;;20.20;64.30;;;;;;5112953;28;20028;-74
2021/06/03 05:50:18;;;;;;;2.13;1.25;;;20.20;64.40;;;;;;5114345;28;20069;-74
2021/06/03 05:52:46;;;;;;;2.13;1.20;;;20.20;64.50;;;;;;5077622;28;20429;-74
2021/06/03 05:55:14;;;;;;;3.13;1.35;;;20.20;64.50;;;;;;5094912;28;20489;-73
2021/06/03 05:57:42;;;;;;;3.25;1.77;;;20.20;64.60;;;;;;5087269;28;20036;-73
2021/06/03 06:00:18;;;;;;;2.42;1.25;;;20.20;64.80;;;;;;5111605;28;20133;-73
2021/06/03 06:02:56;;;;;;;3.03;1.70;;;20.30;64.80;;;;;;5105606;28;20031;-73
2021/06/03 06:08:12;;;;;;;2.20;1.17;;;20.40;64.60;;;;;;5111266;28;20047;-74
2021/06/03 06:10:41;;;;;;;2.78;1.40;;;20.50;64.50;;;;;;5094799;28;20482;-74
2021/06/03 06:13:08;;;;;;;2.00;1.10;;;20.60;64.40;;;;;;5112675;28;20505;-74
2021/06/03 06:15:37;;;;;;;2.88;1.30;;;20.70;64.40;;;;;;5100573;28;20040;-73
2021/06/03 06:18:05;;;;;;;2.85;1.80;;;20.70;64.40;;;;;;5112335;28;20044;-73
2021/06/03 06:20:34;;;;;;;3.50;2.20;;;20.70;64.50;;;;;;5105152;28;20044;-73
2021/06/03 06:23:01;;;;;;;3.85;1.75;;;20.70;64.60;;;;;;5098991;28;20483;-73
2021/06/03 06:25:29;;;;;;;2.63;1.92;;;20.70;64.70;;;;;;5090759;28;20591;-73
2021/06/03 06:27:56;;;;;;;3.88;2.03;;;20.70;64.70;;;;;;5104760;28;20043;-74
2021/06/03 06:30:25;;;;;;;2.58;1.67;;;20.70;64.80;;;;;;5108201;28;20044;-73
2021/06/03 06:32:53;;;;;;;3.55;1.92;;;20.80;64.90;;;;;;5098360;28;20039;-73
2021/06/03 06:35:21;;;;;;;2.55;1.63;;;20.90;64.80;;;;;;5112442;28;20032;-73
2021/06/03 06:37:48;;;;;;;4.13;2.60;;;21.10;64.60;;;;;;5112143;28;20058;-73
2021/06/03 06:40:15;;;;;;;2.92;1.80;;;21.20;64.60;;;;;;5072954;28;20032;-74
2021/06/03 06:42:42;;;;;;;2.55;1.42;;;21.20;64.50;;;;;;5108733;28;20080;-72
2021/06/03 06:45:10;;;;;;;2.53;1.58;;;21.30;64.50;;;;;;5090991;28;20047;-73
2021/06/03 06:47:37;;;;;;;2.72;1.60;;;21.40;64.40;;;;;;5090363;28;20040;-73
2021/06/03 06:50:06;;;;;;;3.40;1.85;;;21.50;64.30;;;;;;5084009;28;20054;-74
2021/06/03 06:52:34;;;;;;;2.10;1.33;;;21.70;64.00;;;;;;5089563;28;20047;-73
2021/06/03 06:55:04;;;;;;;2.58;1.67;;;21.90;63.70;;;;;;5105933;28;20075;-73
2021/06/03 06:57:31;;;;;;;5.30;2.47;;;22.10;63.60;;;;;;5075957;28;20506;-73
2021/06/03 06:59:58;;;;;;;5.70;2.83;;;22.30;63.50;;;;;;5105309;28;20059;-69
2021/06/03 07:02:25;;;;;;;5.47;2.45;;;22.40;63.40;;;;;;5111025;28;20161;-69
2021/06/03 07:04:52;;;;;;;5.22;2.80;;;22.60;63.30;;;;;;5105953;28;20471;-69
2021/06/03 07:07:19;;;;;;;4.50;3.33;;;22.70;63.10;;;;;;5107818;28;20039;-70
2021/06/03 07:09:46;;;;;;;3.90;3.20;;;22.70;63.40;;;;;;5110883;28;20040;-70
2021/06/03 07:12:14;;;;;;;4.32;3.13;;;22.70;63.90;;;;;;5092648;28;20114;-70
2021/06/03 07:14:42;;;;;;;4.40;2.92;;;22.80;63.40;;;;;;5109608;28;20040;-70
2021/06/03 07:17:09;;;;;;;4.60;2.92;;;22.90;63.20;;;;;;5069883;28;20043;-70
2021/06/03 07:19:36;;;;;;;4.00;2.70;;;23.00;63.10;;;;;;5089542;28;20127;-70
2021/06/03 07:22:06;;;;;;;4.50;3.10;;;23.10;62.90;;;;;;5091628;28;20139;-70
2021/06/03 07:24:35;;;;;;;3.97;2.42;;;23.20;62.70;;;;;;5110754;28;20039;-70
2021/06/03 07:27:04;;;;;;;4.53;2.65;;;23.30;62.50;;;;;;5072427;28;20039;-70
2021/06/03 07:29:31;;;;;;;5.35;2.20;;;23.50;62.40;;;;;;5110037;28;20490;-70
2021/06/03 07:31:58;;;;;;;4.07;1.73;;;23.60;62.00;;;;;;5073549;28;20096;-70
2021/06/03 07:34:25;;;;;;;3.72;2.22;;;23.80;62.00;;;;;;5092205;28;20043;-70
2021/06/03 07:36:53;;;;;;;3.95;2.28;;;23.90;61.70;;;;;;5110019;28;20067;-70
2021/06/03 07:39:21;;;;;;;3.67;2.55;;;24.10;61.50;;;;;;5111278;28;20489;-70
2021/06/03 07:41:50;;;;;;;4.68;2.55;;;24.20;61.20;;;;;;5090642;28;20433;-70
2021/06/03 07:44:18;;;;;;;3.83;2.50;;;24.30;61.10;;;;;;5089178;28;20063;-69
2021/06/03 07:46:45;;;;;;;4.35;2.78;;;24.30;60.90;;;;;;5091848;28;20051;-70
2021/06/03 07:49:13;;;;;;;5.38;2.40;;;24.20;61.00;;;;;;5110482;28;20043;-71
2021/06/03 07:51:42;;;;;;;3.72;2.38;;;24.10;61.00;;;;;;5087563;28;20035;-71
2021/06/03 07:54:10;;;;;;;3.60;2.60;;;24.20;61.10;;;;;;5110593;28;20475;-71
2021/06/03 07:56:38;;;;;;;3.53;2.47;;;24.20;61.00;;;;;;5110961;28;20092;-70
2021/06/03 07:59:06;;;;;;;3.80;2.47;;;24.20;60.90;;;;;;5067028;28;20040;-70
2021/06/03 08:01:33;;;;;;;4.80;2.88;;;24.20;60.90;;;;;;5094324;28;20035;-70
2021/06/03 08:04:00;;;;;;;4.00;2.80;;;24.20;60.90;;;;;;5114028;28;20035;-71
2021/06/03 08:06:27;;;;;;;4.07;2.35;;;24.30;60.60;;;;;;5078150;28;20105;-71
2021/06/03 08:08:54;;;;;;;4.50;2.88;;;24.50;60.40;;;;;;5087554;28;20043;-71
2021/06/03 08:11:21;;;;;;;4.25;2.40;;;24.70;60.10;;;;;;5091289;28;20119;-71
2021/06/03 08:13:48;;;;;;;3.50;2.63;;;24.90;59.70;;;;;;5095466;28;20047;-69
2021/06/03 08:16:15;;;;;;;3.33;2.22;;;25.10;59.20;;;;;;5110848;28;20753;-71
2021/06/03 08:18:42;;;;;;;4.43;2.63;;;25.40;59.00;;;;;;5113757;28;20428;-71
2021/06/03 08:21:09;;;;;;;4.13;2.65;;;25.70;58.60;;;;;;5113083;28;20490;-72
2021/06/03 08:23:37;;;;;;;3.75;2.17;;;25.90;58.20;;;;;;5095954;28;20080;-71
2021/06/03 08:26:04;;;;;;;3.88;2.33;;;25.90;57.90;;;;;;5096341;28;20122;-71
2021/06/03 08:28:32;;;;;;;3.22;2.30;;;26.00;57.90;;;;;;5096084;28;20368;-71
2021/06/03 08:31:00;;;;;;;4.20;2.22;;;26.00;57.50;;;;;;5095521;28;20039;-71
2021/06/03 08:33:29;;;;;;;3.90;2.03;;;26.00;57.50;;;;;;5096132;28;20105;-70
2021/06/03 08:35:56;;;;;;;3.13;2.03;;;26.00;57.40;;;;;;5111917;28;20040;-70
2021/06/03 08:38:23;;;;;;;3.20;2.03;;;25.90;57.50;;;;;;5095455;28;20078;-71
2021/06/03 08:40:55;;;;;;;2.50;1.60;;;25.70;57.70;;;;;;5095773;28;20027;-71
2021/06/03 08:43:26;;;;;;;4.68;1.90;;;25.60;57.90;;;;;;5084741;28;20081;-71
2021/06/03 08:45:54;;;;;;;3.15;2.10;;;25.50;58.00;;;;;;5113304;28;20047;-71
2021/06/03 08:48:21;;;;;;;2.67;1.60;;;25.40;58.60;;;;;;5094759;28;20061;-72
2021/06/03 08:50:55;;;;;;;4.00;1.85;;;25.50;58.60;;;;;;5078805;28;20040;-71
2021/06/03 08:53:22;;;;;;;2.95;1.70;;;25.60;57.70;;;;;;5101567;28;20044;-71
2021/06/03 08:58:36;;;;;;;3.90;2.13;;;26.10;56.80;;;;;;5095657;28;20047;-71
2021/06/03 09:01:04;;;;;;;2.30;1.73;;;26.20;56.60;;;;;;5113512;28;20542;-72
2021/06/03 09:03:33;;;;;;;2.55;1.77;;;26.20;56.60;;;;;;5095911;28;20391;-71
2021/06/03 09:06:01;;;;;;;2.75;1.70;;;26.20;56.50;;;;;;5113372;28;20548;-71
2021/06/03 09:08:33;;;;;;;3.75;1.90;;;26.30;56.20;;;;;;5094451;28;20031;-73
2021/06/03 09:11:14;;;;;;;2.35;1.58;;;26.40;56.00;;;;;;5112968;28;20035;-71
2021/06/03 09:13:44;;;;;;;2.28;1.52;;;26.30;55.80;;;;;;5067977;28;20085;-71
2021/06/03 09:16:15;;;;;;;3.13;1.80;;;26.30;55.70;;;;;;5094115;28;20419;-71
2021/06/03 09:18:43;;;;;;;2.75;2.05;;;26.30;55.80;;;;;;5094675;28;20062;-74
2021/06/03 09:21:29;;;;;;;3.08;1.58;;;26.30;55.80;;;;;;5094891;28;20123;-74
2021/06/03 09:24:02;;;;;;;2.85;1.52;;;26.30;55.80;;;;;;5097997;28;20502;-72
2021/06/03 09:26:56;;;;;;;3.30;1.75;;;26.10;55.80;;;;;;5086977;28;20044;-71
2021/06/03 09:29:33;;;;;;;2.70;1.60;;;26.30;55.80;;;;;;5090644;28;20039;-72
2021/06/03 09:32:09;;;;;;;2.53;1.70;;;26.20;55.70;;;;;;5077634;28;20152;-73
2021/06/03 09:34:39;;;;;;;3.00;1.88;;;26.20;55.80;;;;;;5093920;28;20032;-73
2021/06/03 09:37:09;;;;;;;3.50;1.88;;;26.10;56.00;;;;;;5113055;28;20379;-72
2021/06/03 09:39:38;;;;;;;2.95;2.05;;;26.10;56.10;;;;;;5094307;28;20084;-71
2021/06/03 09:42:05;;;;;;;2.70;2.00;;;26.20;56.10;;;;;;5102917;28;20562;-75
2021/06/03 09:44:41;;;;;;;4.68;2.40;;;26.30;56.10;;;;;;5094222;28;20032;-71
2021/06/03 09:47:26;;;;;;;3.78;2.03;;;26.30;56.10;;;;;;5105988;28;20044;-71
2021/06/03 09:49:53;;;;;;;4.18;1.70;;;26.50;55.90;;;;;;5102191;28;20067;-71
2021/06/03 09:52:25;;;;;;;2.38;1.77;;;26.70;55.80;;;;;;5093452;28;20076;-72
2021/06/03 09:54:57;;;;;;;3.95;2.97;;;26.90;55.60;;;;;;5093928;28;20395;-76
2021/06/03 09:57:31;;;;;;;3.80;3.00;;;27.10;55.20;;;;;;5093611;28;20051;-74
2021/06/03 10:00:22;;;;;;;3.67;2.20;;;27.10;55.10;;;;;;5111856;28;20089;-74
2021/06/03 10:02:54;;;;;;;3.30;2.40;;;27.20;55.20;;;;;;5095051;28;20063;-74
2021/06/03 10:05:23;;;;;;;4.20;2.08;;;27.20;55.10;;;;;;5112244;28;20570;-74
2021/06/03 10:07:56;;;;;;;2.50;1.85;;;27.30;55.30;;;;;;5077867;28;20039;-74
2021/06/03 10:10:25;;;;;;;2.97;2.20;;;27.40;55.20;;;;;;5110549;28;20035;-74
2021/06/03 10:12:53;;;;;;;2.60;1.38;;;27.50;55.10;;;;;;5109524;28;20035;-74
2021/06/03 10:15:21;;;;;;;2.20;1.63;;;27.50;55.00;;;;;;5093802;28;20542;-74
2021/06/03 10:17:57;;;;;;;4.30;2.35;;;27.40;55.10;;;;;;5112217;28;20043;-74
2021/06/03 10:20:30;;;;;;;4.90;2.33;;;27.30;55.20;;;;;;5110699;28;20118;-75
2021/06/03 10:22:58;;;;;;;4.85;2.30;;;27.20;55.30;;;;;;5108678;28;20047;-73
2021/06/03 10:25:28;;;;;;;3.63;2.13;;;27.00;55.60;;;;;;5112073;28;20070;-73
2021/06/03 10:28:14;;;;;;;2.85;1.67;;;26.90;55.70;;;;;;5090889;28;20035;-73
2021/06/03 10:30:48;;;;;;;3.97;1.88;;;26.80;55.70;;;;;;5102694;28;20499;-73
2021/06/03 10:33:18;;;;;;;2.53;1.42;;;26.70;55.90;;;;;;5102338;28;20039;-73
2021/06/03 10:35:48;;;;;;;3.30;1.60;;;26.70;56.00;;;;;;5111335;28;20047;-74
2021/06/03 10:38:17;;;;;;;6.82;2.20;;;26.70;56.10;;;;;;5094209;28;20392;-73
2021/06/03 10:40:56;;;;;;;2.58;1.65;;;26.60;56.10;;;;;;5111736;28;20314;-70
2021/06/03 10:43:23;;;;;;;3.08;2.10;;;26.60;56.20;;;;;;5111458;28;20051;-70
2021/06/03 10:45:50;;;;;;;3.45;2.33;;;26.50;56.40;;;;;;5093251;28;20044;-70
2021/06/03 10:48:18;;;;;;;3.30;2.33;;;26.40;56.60;;;;;;5093714;28;20039;-72
2021/06/03 10:50:52;;;;;;;3.35;2.13;;;26.30;57.00;;;;;;5094046;28;20047;-71
2021/06/03 10:53:26;;;;;;;3.13;2.13;;;26.20;57.60;;;;;;5093822;28;20039;-71
2021/06/03 10:55:56;;;;;;;3.30;2.20;;;26.10;58.00;;;;;;5097803;28;20090;-72
2021/06/03 10:58:38;;;;;;;4.38;2.80;;;26.20;58.20;;;;;;5091576;28;20032;-71
2021/06/03 11:01:08;;;;;;;2.35;1.67;;;26.40;58.50;;;;;;5091535;28;20036;-73
2021/06/03 11:03:55;;;;;;;3.10;2.17;;;26.50;58.50;;;;;;5100657;28;20050;-72
2021/06/03 11:06:26;;;;;;;4.28;2.50;;;26.60;58.30;;;;;;5079676;28;20037;-72
2021/06/03 11:08:56;;;;;;;3.00;2.17;;;26.60;58.50;;;;;;5092887;28;20043;-70
2021/06/03 11:11:31;;;;;;;3.65;2.60;;;26.40;58.60;;;;;;5092175;28;20510;-70
2021/06/03 11:14:06;;;;;;;4.03;2.90;;;26.20;59.10;;;;;;5120969;28;20545;-70
2021/06/03 11:16:36;;;;;;;3.47;2.78;;;26.10;59.80;;;;;;5080972;28;20047;-71
2021/06/03 11:19:03;;;;;;;3.47;2.50;;;25.90;60.10;;;;;;5103886;28;20112;-71
2021/06/03 11:21:43;;;;;;;3.50;2.70;;;25.70;60.60;;;;;;5092907;28;20046;-72
2021/06/03 11:24:16;;;;;;;3.15;2.20;;;25.60;61.10;;;;;;5110355;28;20389;-71
2021/06/03 11:26:43;;;;;;;4.68;2.92;;;25.60;61.60;;;;;;5110886;28;20031;-71
2021/06/03 11:29:20;;;;;;;6.88;3.60;;;25.50;62.00;;;;;;5076408;28;20036;-71
2021/06/03 11:32:06;;;;;;;6.88;3.38;;;25.60;62.50;;;;;;5113977;28;20110;-71
2021/06/03 11:34:42;;;;;;;3.13;2.28;;;26.00;62.10;;;;;;5113730;28;20517;-71
2021/06/03 11:37:29;;;;;;;5.40;3.90;;;26.50;61.80;;;;;;5108722;28;20506;-74
2021/06/03 11:40:19;;;;;;;5.60;3.70;;;26.90;61.20;;;;;;5099735;27;20414;-73
2021/06/03 11:42:57;;;;;;;2.95;2.10;;;27.30;60.70;;;;;;5112743;28;20077;-72
2021/06/03 11:45:32;;;;;;;4.25;3.00;;;27.30;60.60;;;;;;5092382;28;20058;-72
2021/06/03 11:48:03;;;;;;;5.75;3.30;;;27.20;60.70;;;;;;5115160;28;20487;-72
2021/06/03 11:50:30;;;;;;;4.47;3.47;;;27.20;60.70;;;;;;5087788;28;20035;-72
2021/06/03 11:53:00;;;;;;;6.03;3.20;;;27.30;60.50;;;;;;5104922;28;20074;-71
2021/06/03 11:55:31;;;;;;;4.13;3.55;;;27.30;60.40;;;;;;5096370;28;20066;-71
2021/06/03 11:58:26;;;;;;;4.93;3.90;;;27.20;60.50;;;;;;5094901;28;20053;-71
2021/06/03 12:01:02;;;;;;;5.00;3.00;;;27.30;60.20;;;;;;5079340;28;20117;-73
2021/06/03 12:03:40;;;;;;;3.72;3.30;;;27.50;59.90;;;;;;5113750;28;20039;-72
2021/06/03 12:06:24;;;;;;;4.25;3.35;;;28.00;59.60;;;;;;5093176;28;20562;-72
2021/06/03 12:09:00;;;;;;;3.22;2.83;;;28.50;58.80;;;;;;5087411;28;20518;-75
2021/06/03 12:11:34;;;;;;;2.67;2.38;;;28.90;58.30;;;;;;5071919;28;20499;-76
2021/06/03 12:14:07;;;;;;;3.08;2.72;;;29.40;57.60;;;;;;5101223;28;20706;-72
2021/06/03 12:16:46;;;;;;;5.50;2.80;;;29.60;57.00;;;;;;5091828;28;20135;-72
2021/06/03 12:19:23;;;;;;;3.55;2.35;;;29.90;56.70;;;;;;5109367;28;20110;-71
2021/06/03 12:22:05;;;;;;;2.55;2.25;;;30.50;56.20;;;;;;5104677;28;20043;-71
2021/06/03 12:24:48;;;;;;;3.00;2.28;;;30.70;55.30;;;;;;5089984;28;20078;-71
2021/06/03 12:27:28;;;;;;;3.53;2.47;;;30.50;56.00;;;;;;5108377;28;20032;-71
2021/06/03 12:30:09;;;;;;;2.58;2.00;;;30.20;55.70;;;;;;5090884;28;20172;-73
2021/06/03 12:32:36;;;;;;;2.67;1.98;;;30.00;56.00;;;;;;5105679;28;20043;-73
2021/06/03 12:35:05;;;;;;;2.22;1.58;;;29.80;56.00;;;;;;5090252;28;20073;-70
2021/06/03 12:37:36;;;;;;;2.63;1.90;;;29.80;56.00;;;;;;5090400;28;20043;-71
2021/06/03 12:40:21;;;;;;;2.28;1.73;;;30.20;55.30;;;;;;5082449;28;20404;-70
2021/06/03 12:42:48;;;;;;;2.72;1.63;;;30.70;54.40;;;;;;5097913;28;20048;-70
2021/06/03 12:45:16;;;;;;;2.78;1.85;;;30.50;54.20;;;;;;5110195;28;20039;-70
2021/06/03 12:47:43;;;;;;;3.53;1.67;;;30.80;54.00;;;;;;5067561;28;20096;-71
2021/06/03 12:50:15;;;;;;;1.75;1.30;;;31.20;53.50;;;;;;5099988;28;20044;-71
2021/06/03 12:52:48;;;;;;;3.25;2.42;;;31.00;53.20;;;;;;5081615;28;21333;-71
2021/06/03 12:55:23;;;;;;;3.80;2.50;;;30.60;53.20;;;;;;5097031;28;20048;-70
2021/06/03 12:57:52;;;;;;;3.05;2.13;;;30.00;53.80;;;;;;5075946;28;20071;-70
2021/06/03 13:00:27;;;;;;;3.80;2.40;;;29.60;54.60;;;;;;5063123;28;20032;-71
2021/06/03 13:02:54;;;;;;;2.88;2.00;;;29.20;55.10;;;;;;5095110;28;20547;-70
2021/06/03 13:05:22;;;;;;;2.35;1.90;;;28.90;55.60;;;;;;5102381;28;20548;-70
2021/06/03 13:07:50;;;;;;;2.95;1.77;;;28.60;56.00;;;;;;5089720;28;20487;-70